sensor_id;sensor_type;location;lat;lon;timestamp;P1;durP1;ratioP1;P2;durP2;ratioP2
1366;SDS011;16877;48.810;9.282;2022-10-16T00:01:26;4.23;;;1.30;;
1366;SDS011;16877;48.810;9.282;2022-10-16T00:03:54;2.67;;;1.40;;
1366;SDS011;16877;48.810;9.282;2022-10-16T00:06:21;3.10;;;1.20;;
1366;SDS011;16877;48.810;9.282;2022-10-16T00:08:48;2.60;;;1.70;;
1366;SDS011;16877;48.810;9.282;2022-10-16T00:11:16;2.50;;;1.53;;
1366;SDS011;16877;48.810;9.282;2022-10-16T00:13:46;1.97;;;1.27;;
1366;SDS011;16877;48.810;9.282;2022-10-16T00:16:14;2.27;;;1.27;;
1366;SDS011;16877;48.810;9.282;2022-10-16T00:18:41;2.90;;;1.83;;
1366;SDS011;16877;48.810;9.282;2022-10-16T00:21:10;3.20;;;1.10;;
1366;SDS011;16877;48.810;9.282;2022-10-16T00:23:37;2.30;;;1.33;;
1366;SDS011;16877;48.810;9.282;2022-10-16T00:26:05;2.03;;;1.20;;
1366;SDS011;16877;48.810;9.282;2022-10-16T00:28:34;2.83;;;1.30;;
1366;SDS011;16877;48.810;9.282;2022-10-16T00:31:04;2.13;;;1.20;;
1366;SDS011;16877;48.810;9.282;2022-10-16T00:33:31;2.27;;;1.03;;
1366;SDS011;16877;48.810;9.282;2022-10-16T00:35:58;4.03;;;1.40;;
1366;SDS011;16877;48.810;9.282;2022-10-16T00:38:25;2.93;;;1.10;;
1366;SDS011;16877;48.810;9.282;2022-10-16T00:40:52;2.00;;;1.10;;
1366;SDS011;16877;48.810;9.282;2022-10-16T00:43:32;3.03;;;1.27;;
1366;SDS011;16877;48.810;9.282;2022-10-16T00:46:01;3.30;;;1.30;;
1366;SDS011;16877;48.810;9.282;2022-10-16T00:48:30;2.27;;;1.20;;
1366;SDS011;16877;48.810;9.282;2022-10-16T00:50:57;2.20;;;1.10;;
1366;SDS011;16877;48.810;9.282;2022-10-16T00:53:25;2.07;;;1.27;;
1366;SDS011;16877;48.810;9.282;2022-10-16T00:55:52;2.77;;;1.00;;
1366;SDS011;16877;48.810;9.282;2022-10-16T00:58:20;2.40;;;1.20;;
1366;SDS011;16877;48.810;9.282;2022-10-16T01:00:47;2.57;;;1.43;;
1366;SDS011;16877;48.810;9.282;2022-10-16T01:03:26;1.97;;;1.10;;
1366;SDS011;16877;48.810;9.282;2022-10-16T01:05:58;2.13;;;1.10;;
1366;SDS011;16877;48.810;9.282;2022-10-16T01:08:58;2.13;;;1.20;;
1366;SDS011;16877;48.810;9.282;2022-10-16T01:11:37;1.90;;;1.00;;
1366;SDS011;16877;48.810;9.282;2022-10-16T01:14:11;1.90;;;1.10;;
1366;SDS011;16877;48.810;9.282;2022-10-16T01:16:45;2.27;;;0.87;;
1366;SDS011;16877;48.810;9.282;2022-10-16T01:19:25;2.40;;;1.00;;
1366;SDS011;16877;48.810;9.282;2022-10-16T01:22:02;2.10;;;1.17;;
1366;SDS011;16877;48.810;9.282;2022-10-16T01:24:31;2.30;;;1.13;;
1366;SDS011;16877;48.810;9.282;2022-10-16T01:27:10;1.63;;;0.73;;
1366;SDS011;16877;48.810;9.282;2022-10-16T01:29:40;4.33;;;1.00;;
1366;SDS011;16877;48.810;9.282;2022-10-16T01:32:16;2.30;;;1.27;;
1366;SDS011;16877;48.810;9.282;2022-10-16T01:34:49;3.80;;;1.90;;
1366;SDS011;16877;48.810;9.282;2022-10-16T01:37:21;2.13;;;1.13;;
1366;SDS011;16877;48.810;9.282;2022-10-16T01:39:52;1.90;;;1.10;;
1366;SDS011;16877;48.810;9.282;2022-10-16T01:42:24;2.30;;;1.30;;
1366;SDS011;16877;48.810;9.282;2022-10-16T01:44:55;2.00;;;1.00;;
1366;SDS011;16877;48.810;9.282;2022-10-16T01:47:25;2.57;;;1.10;;
1366;SDS011;16877;48.810;9.282;2022-10-16T01:49:53;1.80;;;0.80;;
1366;SDS011;16877;48.810;9.282;2022-10-16T01:52:22;3.67;;;1.13;;
1366;SDS011;16877;48.810;9.282;2022-10-16T01:54:52;3.70;;;0.90;;
1366;SDS011;16877;48.810;9.282;2022-10-16T01:57:24;2.50;;;1.23;;
1366;SDS011;16877;48.810;9.282;2022-10-16T01:59:53;2.20;;;1.23;;
1366;SDS011;16877;48.810;9.282;2022-10-16T02:02:22;1.93;;;0.90;;
1366;SDS011;16877;48.810;9.282;2022-10-16T02:04:53;1.93;;;1.00;;
1366;SDS011;16877;48.810;9.282;2022-10-16T02:07:24;2.20;;;1.07;;
1366;SDS011;16877;48.810;9.282;2022-10-16T02:09:51;2.17;;;1.20;;
1366;SDS011;16877;48.810;9.282;2022-10-16T02:12:19;2.13;;;1.03;;
1366;SDS011;16877;48.810;9.282;2022-10-16T02:14:51;4.70;;;1.20;;
1366;SDS011;16877;48.810;9.282;2022-10-16T02:17:18;2.73;;;1.00;;
1366;SDS011;16877;48.810;9.282;2022-10-16T02:19:46;2.70;;;1.30;;
1366;SDS011;16877;48.810;9.282;2022-10-16T02:22:16;2.40;;;1.20;;
1366;SDS011;16877;48.810;9.282;2022-10-16T02:24:48;2.80;;;1.30;;
1366;SDS011;16877;48.810;9.282;2022-10-16T02:27:22;2.17;;;1.10;;
1366;SDS011;16877;48.810;9.282;2022-10-16T02:29:55;3.30;;;1.20;;
1366;SDS011;16877;48.810;9.282;2022-10-16T02:32:27;2.83;;;1.30;;
1366;SDS011;16877;48.810;9.282;2022-10-16T02:34:57;2.20;;;1.13;;
1366;SDS011;16877;48.810;9.282;2022-10-16T02:37:26;2.67;;;1.40;;
1366;SDS011;16877;48.810;9.282;2022-10-16T02:39:55;4.90;;;1.60;;
1366;SDS011;16877;48.810;9.282;2022-10-16T02:42:27;2.57;;;1.47;;
1366;SDS011;16877;48.810;9.282;2022-10-16T02:44:56;1.90;;;0.93;;
1366;SDS011;16877;48.810;9.282;2022-10-16T02:47:23;5.33;;;1.97;;
1366;SDS011;16877;48.810;9.282;2022-10-16T02:49:50;2.73;;;1.30;;
1366;SDS011;16877;48.810;9.282;2022-10-16T02:52:16;2.20;;;1.40;;
1366;SDS011;16877;48.810;9.282;2022-10-16T02:54:43;2.33;;;1.20;;
1366;SDS011;16877;48.810;9.282;2022-10-16T02:57:10;1.90;;;1.00;;
1366;SDS011;16877;48.810;9.282;2022-10-16T02:59:37;2.67;;;1.83;;
1366;SDS011;16877;48.810;9.282;2022-10-16T03:02:09;3.03;;;1.53;;
1366;SDS011;16877;48.810;9.282;2022-10-16T03:04:36;3.50;;;1.53;;
1366;SDS011;16877;48.810;9.282;2022-10-16T03:07:06;2.20;;;1.60;;
1366;SDS011;16877;48.810;9.282;2022-10-16T03:09:33;2.33;;;1.33;;
1366;SDS011;16877;48.810;9.282;2022-10-16T03:12:00;2.70;;;1.57;;
1366;SDS011;16877;48.810;9.282;2022-10-16T03:14:27;6.23;;;1.67;;
1366;SDS011;16877;48.810;9.282;2022-10-16T03:16:53;2.73;;;1.50;;
1366;SDS011;16877;48.810;9.282;2022-10-16T03:19:21;3.30;;;1.87;;
1366;SDS011;16877;48.810;9.282;2022-10-16T03:21:48;2.83;;;1.53;;
1366;SDS011;16877;48.810;9.282;2022-10-16T03:24:15;2.53;;;1.27;;
1366;SDS011;16877;48.810;9.282;2022-10-16T03:26:42;3.20;;;1.40;;
1366;SDS011;16877;48.810;9.282;2022-10-16T03:29:08;2.63;;;1.37;;
1366;SDS011;16877;48.810;9.282;2022-10-16T03:31:35;2.20;;;1.43;;
1366;SDS011;16877;48.810;9.282;2022-10-16T03:34:02;5.00;;;1.30;;
1366;SDS011;16877;48.810;9.282;2022-10-16T03:36:30;3.53;;;1.53;;
1366;SDS011;16877;48.810;9.282;2022-10-16T03:38:57;2.33;;;1.47;;
1366;SDS011;16877;48.810;9.282;2022-10-16T03:41:23;2.27;;;1.30;;
1366;SDS011;16877;48.810;9.282;2022-10-16T03:43:50;3.10;;;1.60;;
1366;SDS011;16877;48.810;9.282;2022-10-16T03:46:17;2.23;;;1.67;;
1366;SDS011;16877;48.810;9.282;2022-10-16T03:48:44;6.07;;;2.10;;
1366;SDS011;16877;48.810;9.282;2022-10-16T03:51:10;2.43;;;1.30;;
1366;SDS011;16877;48.810;9.282;2022-10-16T03:53:38;2.97;;;1.73;;
1366;SDS011;16877;48.810;9.282;2022-10-16T03:56:05;3.57;;;1.60;;
1366;SDS011;16877;48.810;9.282;2022-10-16T03:58:32;3.13;;;1.50;;
1366;SDS011;16877;48.810;9.282;2022-10-16T04:00:59;3.00;;;1.33;;
1366;SDS011;16877;48.810;9.282;2022-10-16T04:03:26;3.77;;;1.87;;
1366;SDS011;16877;48.810;9.282;2022-10-16T04:05:52;2.77;;;1.77;;
1366;SDS011;16877;48.810;9.282;2022-10-16T04:08:19;2.30;;;1.40;;
1366;SDS011;16877;48.810;9.282;2022-10-16T04:10:47;3.47;;;1.50;;
1366;SDS011;16877;48.810;9.282;2022-10-16T04:13:14;2.30;;;1.40;;
1366;SDS011;16877;48.810;9.282;2022-10-16T04:15:41;3.00;;;1.03;;
1366;SDS011;16877;48.810;9.282;2022-10-16T04:18:08;2.20;;;1.30;;
1366;SDS011;16877;48.810;9.282;2022-10-16T04:20:35;3.00;;;1.40;;
1366;SDS011;16877;48.810;9.282;2022-10-16T04:23:02;2.33;;;1.57;;
1366;SDS011;16877;48.810;9.282;2022-10-16T04:25:29;2.73;;;1.53;;
1366;SDS011;16877;48.810;9.282;2022-10-16T04:27:57;2.53;;;1.37;;
1366;SDS011;16877;48.810;9.282;2022-10-16T04:30:24;2.60;;;1.77;;
1366;SDS011;16877;48.810;9.282;2022-10-16T04:32:51;2.40;;;1.60;;
1366;SDS011;16877;48.810;9.282;2022-10-16T04:35:19;3.30;;;1.40;;
1366;SDS011;16877;48.810;9.282;2022-10-16T04:37:46;2.40;;;1.50;;
1366;SDS011;16877;48.810;9.282;2022-10-16T04:40:13;2.10;;;1.40;;
1366;SDS011;16877;48.810;9.282;2022-10-16T04:42:40;2.87;;;1.30;;
1366;SDS011;16877;48.810;9.282;2022-10-16T04:45:09;2.33;;;1.47;;
1366;SDS011;16877;48.810;9.282;2022-10-16T04:47:36;2.13;;;1.47;;
1366;SDS011;16877;48.810;9.282;2022-10-16T04:50:03;2.40;;;1.50;;
1366;SDS011;16877;48.810;9.282;2022-10-16T04:52:31;1.97;;;1.10;;
1366;SDS011;16877;48.810;9.282;2022-10-16T04:54:57;2.70;;;1.70;;
1366;SDS011;16877;48.810;9.282;2022-10-16T04:57:27;2.00;;;1.10;;
1366;SDS011;16877;48.810;9.282;2022-10-16T04:59:54;2.53;;;1.40;;
1366;SDS011;16877;48.810;9.282;2022-10-16T05:02:22;2.77;;;1.67;;
1366;SDS011;16877;48.810;9.282;2022-10-16T05:04:49;2.77;;;1.40;;
1366;SDS011;16877;48.810;9.282;2022-10-16T05:07:16;2.53;;;1.53;;
1366;SDS011;16877;48.810;9.282;2022-10-16T05:09:43;2.93;;;1.80;;
1366;SDS011;16877;48.810;9.282;2022-10-16T05:12:10;2.20;;;1.40;;
1366;SDS011;16877;48.810;9.282;2022-10-16T05:14:37;2.57;;;1.40;;
1366;SDS011;16877;48.810;9.282;2022-10-16T05:17:03;1.80;;;0.97;;
1366;SDS011;16877;48.810;9.282;2022-10-16T05:19:32;2.43;;;1.07;;
1366;SDS011;16877;48.810;9.282;2022-10-16T05:21:59;3.40;;;1.60;;
1366;SDS011;16877;48.810;9.282;2022-10-16T05:24:25;2.50;;;1.37;;
1366;SDS011;16877;48.810;9.282;2022-10-16T05:26:52;2.60;;;1.37;;
1366;SDS011;16877;48.810;9.282;2022-10-16T05:29:20;2.40;;;1.10;;
1366;SDS011;16877;48.810;9.282;2022-10-16T05:31:49;2.47;;;1.30;;
1366;SDS011;16877;48.810;9.282;2022-10-16T05:34:16;2.23;;;1.47;;
1366;SDS011;16877;48.810;9.282;2022-10-16T05:36:44;3.50;;;1.40;;
1366;SDS011;16877;48.810;9.282;2022-10-16T05:39:13;2.23;;;1.40;;
1366;SDS011;16877;48.810;9.282;2022-10-16T05:41:40;2.70;;;1.67;;
1366;SDS011;16877;48.810;9.282;2022-10-16T05:44:07;1.83;;;1.23;;
1366;SDS011;16877;48.810;9.282;2022-10-16T05:46:34;3.13;;;1.30;;
1366;SDS011;16877;48.810;9.282;2022-10-16T05:49:01;2.40;;;1.20;;
1366;SDS011;16877;48.810;9.282;2022-10-16T05:51:28;3.40;;;1.50;;
1366;SDS011;16877;48.810;9.282;2022-10-16T05:53:56;3.93;;;1.83;;
1366;SDS011;16877;48.810;9.282;2022-10-16T05:56:22;2.93;;;1.10;;
1366;SDS011;16877;48.810;9.282;2022-10-16T05:58:49;3.57;;;1.30;;
1366;SDS011;16877;48.810;9.282;2022-10-16T06:01:16;3.10;;;1.50;;
1366;SDS011;16877;48.810;9.282;2022-10-16T06:03:45;4.60;;;1.60;;
1366;SDS011;16877;48.810;9.282;2022-10-16T06:06:13;4.73;;;1.40;;
1366;SDS011;16877;48.810;9.282;2022-10-16T06:08:41;3.10;;;1.20;;
1366;SDS011;16877;48.810;9.282;2022-10-16T06:11:12;5.30;;;1.60;;
1366;SDS011;16877;48.810;9.282;2022-10-16T06:13:40;2.10;;;1.23;;
1366;SDS011;16877;48.810;9.282;2022-10-16T06:16:07;2.93;;;1.30;;
1366;SDS011;16877;48.810;9.282;2022-10-16T06:18:35;2.80;;;1.80;;
1366;SDS011;16877;48.810;9.282;2022-10-16T06:21:06;2.70;;;1.20;;
1366;SDS011;16877;48.810;9.282;2022-10-16T06:23:33;2.10;;;1.30;;
1366;SDS011;16877;48.810;9.282;2022-10-16T06:26:04;2.67;;;1.27;;
1366;SDS011;16877;48.810;9.282;2022-10-16T06:28:32;3.20;;;1.30;;
1366;SDS011;16877;48.810;9.282;2022-10-16T06:30:59;2.00;;;1.00;;
1366;SDS011;16877;48.810;9.282;2022-10-16T06:33:26;2.40;;;1.20;;
1366;SDS011;16877;48.810;9.282;2022-10-16T06:35:53;3.40;;;1.43;;
1366;SDS011;16877;48.810;9.282;2022-10-16T06:38:19;3.90;;;1.33;;
1366;SDS011;16877;48.810;9.282;2022-10-16T06:40:46;2.30;;;1.50;;
1366;SDS011;16877;48.810;9.282;2022-10-16T06:43:13;2.20;;;1.30;;
1366;SDS011;16877;48.810;9.282;2022-10-16T06:45:41;2.57;;;1.63;;
1366;SDS011;16877;48.810;9.282;2022-10-16T06:48:08;3.07;;;1.93;;
1366;SDS011;16877;48.810;9.282;2022-10-16T06:50:35;4.20;;;2.20;;
1366;SDS011;16877;48.810;9.282;2022-10-16T06:53:01;3.07;;;2.00;;
1366;SDS011;16877;48.810;9.282;2022-10-16T06:55:28;3.40;;;1.70;;
1366;SDS011;16877;48.810;9.282;2022-10-16T06:57:55;3.47;;;2.33;;
1366;SDS011;16877;48.810;9.282;2022-10-16T07:00:21;3.30;;;2.33;;
1366;SDS011;16877;48.810;9.282;2022-10-16T07:02:49;3.93;;;2.10;;
1366;SDS011;16877;48.810;9.282;2022-10-16T07:05:16;3.10;;;1.80;;
1366;SDS011;16877;48.810;9.282;2022-10-16T07:07:43;3.10;;;2.27;;
1366;SDS011;16877;48.810;9.282;2022-10-16T07:10:09;2.73;;;1.53;;
1366;SDS011;16877;48.810;9.282;2022-10-16T07:12:36;3.10;;;1.73;;
1366;SDS011;16877;48.810;9.282;2022-10-16T07:15:03;3.30;;;1.70;;
1366;SDS011;16877;48.810;9.282;2022-10-16T07:17:30;4.90;;;2.00;;
1366;SDS011;16877;48.810;9.282;2022-10-16T07:20:00;3.40;;;1.83;;
1366;SDS011;16877;48.810;9.282;2022-10-16T07:22:27;6.07;;;1.77;;
1366;SDS011;16877;48.810;9.282;2022-10-16T07:24:54;3.27;;;1.60;;
1366;SDS011;16877;48.810;9.282;2022-10-16T07:27:21;3.00;;;2.13;;
1366;SDS011;16877;48.810;9.282;2022-10-16T07:29:48;2.60;;;1.40;;
1366;SDS011;16877;48.810;9.282;2022-10-16T07:32:15;2.83;;;1.60;;
1366;SDS011;16877;48.810;9.282;2022-10-16T07:34:42;2.87;;;1.40;;
1366;SDS011;16877;48.810;9.282;2022-10-16T07:37:10;3.20;;;1.67;;
1366;SDS011;16877;48.810;9.282;2022-10-16T07:39:37;2.30;;;1.50;;
1366;SDS011;16877;48.810;9.282;2022-10-16T07:42:03;4.03;;;1.53;;
1366;SDS011;16877;48.810;9.282;2022-10-16T07:44:31;3.03;;;1.70;;
1366;SDS011;16877;48.810;9.282;2022-10-16T07:46:57;9.83;;;1.73;;
1366;SDS011;16877;48.810;9.282;2022-10-16T07:49:24;3.93;;;1.83;;
1366;SDS011;16877;48.810;9.282;2022-10-16T07:51:51;2.93;;;1.70;;
1366;SDS011;16877;48.810;9.282;2022-10-16T07:54:19;2.87;;;2.10;;
1366;SDS011;16877;48.810;9.282;2022-10-16T07:56:46;5.43;;;1.90;;
1366;SDS011;16877;48.810;9.282;2022-10-16T07:59:13;3.00;;;2.10;;
1366;SDS011;16877;48.810;9.282;2022-10-16T08:01:40;2.60;;;1.67;;
1366;SDS011;16877;48.810;9.282;2022-10-16T08:04:08;4.53;;;2.17;;
1366;SDS011;16877;48.810;9.282;2022-10-16T08:06:35;2.60;;;1.60;;
1366;SDS011;16877;48.810;9.282;2022-10-16T08:09:03;4.27;;;1.87;;
1366;SDS011;16877;48.810;9.282;2022-10-16T08:11:32;2.47;;;1.40;;
1366;SDS011;16877;48.810;9.282;2022-10-16T08:13:59;3.00;;;2.07;;
1366;SDS011;16877;48.810;9.282;2022-10-16T08:16:25;2.73;;;1.80;;
1366;SDS011;16877;48.810;9.282;2022-10-16T08:18:52;3.60;;;2.37;;
1366;SDS011;16877;48.810;9.282;2022-10-16T08:21:20;4.70;;;2.30;;
1366;SDS011;16877;48.810;9.282;2022-10-16T08:23:48;2.53;;;1.40;;
1366;SDS011;16877;48.810;9.282;2022-10-16T08:26:15;6.40;;;2.10;;
1366;SDS011;16877;48.810;9.282;2022-10-16T08:28:45;4.00;;;2.07;;
1366;SDS011;16877;48.810;9.282;2022-10-16T08:31:13;3.27;;;2.17;;
1366;SDS011;16877;48.810;9.282;2022-10-16T08:33:41;4.30;;;1.90;;
1366;SDS011;16877;48.810;9.282;2022-10-16T08:36:10;2.80;;;1.80;;
1366;SDS011;16877;48.810;9.282;2022-10-16T08:38:37;3.00;;;2.00;;
1366;SDS011;16877;48.810;9.282;2022-10-16T08:41:16;3.70;;;2.10;;
1366;SDS011;16877;48.810;9.282;2022-10-16T08:44:03;2.27;;;1.40;;
1366;SDS011;16877;48.810;9.282;2022-10-16T08:46:46;2.87;;;1.67;;
1366;SDS011;16877;48.810;9.282;2022-10-16T08:49:19;3.47;;;1.57;;
1366;SDS011;16877;48.810;9.282;2022-10-16T08:51:45;3.57;;;1.33;;
1366;SDS011;16877;48.810;9.282;2022-10-16T08:54:18;2.63;;;1.40;;
1366;SDS011;16877;48.810;9.282;2022-10-16T08:56:53;3.00;;;1.50;;
1366;SDS011;16877;48.810;9.282;2022-10-16T08:59:21;3.17;;;1.77;;
1366;SDS011;16877;48.810;9.282;2022-10-16T09:01:49;2.80;;;1.53;;
1366;SDS011;16877;48.810;9.282;2022-10-16T09:07:21;2.40;;;1.40;;
1366;SDS011;16877;48.810;9.282;2022-10-16T09:09:56;3.30;;;1.33;;
1366;SDS011;16877;48.810;9.282;2022-10-16T09:12:43;3.93;;;1.30;;
1366;SDS011;16877;48.810;9.282;2022-10-16T09:15:20;4.27;;;1.20;;
1366;SDS011;16877;48.810;9.282;2022-10-16T09:17:55;2.67;;;1.53;;
1366;SDS011;16877;48.810;9.282;2022-10-16T09:20:28;2.50;;;1.40;;
1366;SDS011;16877;48.810;9.282;2022-10-16T09:23:16;2.20;;;1.20;;
1366;SDS011;16877;48.810;9.282;2022-10-16T09:25:45;2.83;;;1.30;;
1366;SDS011;16877;48.810;9.282;2022-10-16T09:28:14;2.97;;;1.57;;
1366;SDS011;16877;48.810;9.282;2022-10-16T09:30:43;3.53;;;1.40;;
1366;SDS011;16877;48.810;9.282;2022-10-16T09:33:11;2.20;;;0.97;;
1366;SDS011;16877;48.810;9.282;2022-10-16T09:35:40;2.97;;;1.40;;
1366;SDS011;16877;48.810;9.282;2022-10-16T09:38:09;3.03;;;1.23;;
1366;SDS011;16877;48.810;9.282;2022-10-16T09:40:47;2.83;;;1.40;;
1366;SDS011;16877;48.810;9.282;2022-10-16T09:43:20;4.40;;;1.47;;
1366;SDS011;16877;48.810;9.282;2022-10-16T09:45:55;2.37;;;1.20;;
1366;SDS011;16877;48.810;9.282;2022-10-16T09:48:26;2.13;;;1.10;;
1366;SDS011;16877;48.810;9.282;2022-10-16T09:50:58;2.93;;;1.50;;
1366;SDS011;16877;48.810;9.282;2022-10-16T09:53:37;3.37;;;1.50;;
1366;SDS011;16877;48.810;9.282;2022-10-16T09:56:06;2.80;;;1.50;;
1366;SDS011;16877;48.810;9.282;2022-10-16T09:58:33;4.03;;;1.30;;
1366;SDS011;16877;48.810;9.282;2022-10-16T10:01:01;2.83;;;1.73;;
1366;SDS011;16877;48.810;9.282;2022-10-16T10:03:36;2.47;;;1.30;;
1366;SDS011;16877;48.810;9.282;2022-10-16T10:06:06;1.90;;;0.97;;
1366;SDS011;16877;48.810;9.282;2022-10-16T10:08:52;2.07;;;1.10;;
1366;SDS011;16877;48.810;9.282;2022-10-16T10:11:40;2.47;;;1.10;;
1366;SDS011;16877;48.810;9.282;2022-10-16T10:14:17;8.40;;;5.10;;
1366;SDS011;16877;48.810;9.282;2022-10-16T10:16:51;4.20;;;1.87;;
1366;SDS011;16877;48.810;9.282;2022-10-16T10:19:20;4.63;;;1.63;;
1366;SDS011;16877;48.810;9.282;2022-10-16T10:21:48;3.17;;;1.60;;
1366;SDS011;16877;48.810;9.282;2022-10-16T10:24:16;3.57;;;2.33;;
1366;SDS011;16877;48.810;9.282;2022-10-16T10:26:47;4.40;;;1.93;;
1366;SDS011;16877;48.810;9.282;2022-10-16T10:29:23;3.40;;;1.90;;
1366;SDS011;16877;48.810;9.282;2022-10-16T10:32:00;3.73;;;1.37;;
1366;SDS011;16877;48.810;9.282;2022-10-16T10:34:40;3.73;;;1.50;;
1366;SDS011;16877;48.810;9.282;2022-10-16T10:40:38;3.43;;;1.50;;
1366;SDS011;16877;48.810;9.282;2022-10-16T10:43:15;2.90;;;1.00;;
1366;SDS011;16877;48.810;9.282;2022-10-16T10:45:54;3.80;;;1.67;;
1366;SDS011;16877;48.810;9.282;2022-10-16T10:48:45;3.50;;;1.70;;
1366;SDS011;16877;48.810;9.282;2022-10-16T10:51:22;3.20;;;1.33;;
1366;SDS011;16877;48.810;9.282;2022-10-16T10:53:55;2.50;;;1.50;;
1366;SDS011;16877;48.810;9.282;2022-10-16T10:56:37;4.40;;;1.60;;
1366;SDS011;16877;48.810;9.282;2022-10-16T10:59:32;2.50;;;1.40;;
1366;SDS011;16877;48.810;9.282;2022-10-16T11:02:15;2.30;;;1.30;;
1366;SDS011;16877;48.810;9.282;2022-10-16T11:05:01;2.00;;;1.20;;
1366;SDS011;16877;48.810;9.282;2022-10-16T11:07:52;3.33;;;1.30;;
1366;SDS011;16877;48.810;9.282;2022-10-16T11:10:24;2.97;;;1.30;;
1366;SDS011;16877;48.810;9.282;2022-10-16T11:12:55;3.20;;;1.37;;
1366;SDS011;16877;48.810;9.282;2022-10-16T11:15:27;3.70;;;1.20;;
1366;SDS011;16877;48.810;9.282;2022-10-16T11:17:58;2.50;;;1.40;;
1366;SDS011;16877;48.810;9.282;2022-10-16T11:20:34;3.90;;;1.63;;
1366;SDS011;16877;48.810;9.282;2022-10-16T11:23:07;3.67;;;1.70;;
1366;SDS011;16877;48.810;9.282;2022-10-16T11:25:40;4.10;;;1.80;;
1366;SDS011;16877;48.810;9.282;2022-10-16T11:28:10;3.33;;;1.83;;
1366;SDS011;16877;48.810;9.282;2022-10-16T11:30:41;2.60;;;1.40;;
1366;SDS011;16877;48.810;9.282;2022-10-16T11:33:22;3.70;;;1.20;;
1366;SDS011;16877;48.810;9.282;2022-10-16T11:35:55;2.83;;;1.40;;
1366;SDS011;16877;48.810;9.282;2022-10-16T11:38:27;2.20;;;1.40;;
1366;SDS011;16877;48.810;9.282;2022-10-16T11:40:58;4.73;;;1.20;;
1366;SDS011;16877;48.810;9.282;2022-10-16T11:43:29;2.50;;;1.40;;
1366;SDS011;16877;48.810;9.282;2022-10-16T11:46:04;2.10;;;1.10;;
1366;SDS011;16877;48.810;9.282;2022-10-16T11:48:35;2.87;;;1.40;;
1366;SDS011;16877;48.810;9.282;2022-10-16T11:51:11;3.00;;;1.37;;
1366;SDS011;16877;48.810;9.282;2022-10-16T11:53:46;3.90;;;1.60;;
1366;SDS011;16877;48.810;9.282;2022-10-16T11:56:20;3.67;;;1.63;;
1366;SDS011;16877;48.810;9.282;2022-10-16T11:58:51;2.40;;;1.27;;
1366;SDS011;16877;48.810;9.282;2022-10-16T12:01:22;2.50;;;1.20;;
1366;SDS011;16877;48.810;9.282;2022-10-16T12:03:58;2.40;;;1.30;;
1366;SDS011;16877;48.810;9.282;2022-10-16T12:06:39;2.93;;;1.30;;
1366;SDS011;16877;48.810;9.282;2022-10-16T12:09:10;3.10;;;1.07;;
1366;SDS011;16877;48.810;9.282;2022-10-16T12:11:42;2.63;;;1.13;;
1366;SDS011;16877;48.810;9.282;2022-10-16T12:14:20;2.50;;;1.30;;
1366;SDS011;16877;48.810;9.282;2022-10-16T12:17:02;2.70;;;1.40;;
1366;SDS011;16877;48.810;9.282;2022-10-16T12:19:31;2.50;;;1.43;;
1366;SDS011;16877;48.810;9.282;2022-10-16T12:22:01;3.93;;;1.67;;
1366;SDS011;16877;48.810;9.282;2022-10-16T12:24:31;2.90;;;1.63;;
1366;SDS011;16877;48.810;9.282;2022-10-16T12:27:00;3.53;;;1.70;;
1366;SDS011;16877;48.810;9.282;2022-10-16T12:29:29;3.90;;;2.00;;
1366;SDS011;16877;48.810;9.282;2022-10-16T12:32:00;4.80;;;1.90;;
1366;SDS011;16877;48.810;9.282;2022-10-16T12:34:28;2.43;;;1.30;;
1366;SDS011;16877;48.810;9.282;2022-10-16T12:37:09;4.13;;;2.07;;
1366;SDS011;16877;48.810;9.282;2022-10-16T12:39:39;2.33;;;1.30;;
1366;SDS011;16877;48.810;9.282;2022-10-16T12:42:19;4.33;;;1.40;;
1366;SDS011;16877;48.810;9.282;2022-10-16T12:44:48;2.43;;;1.30;;
1366;SDS011;16877;48.810;9.282;2022-10-16T12:47:19;2.37;;;1.43;;
1366;SDS011;16877;48.810;9.282;2022-10-16T12:49:48;3.27;;;1.20;;
1366;SDS011;16877;48.810;9.282;2022-10-16T12:52:25;3.37;;;1.70;;
1366;SDS011;16877;48.810;9.282;2022-10-16T12:54:55;3.60;;;1.33;;
1366;SDS011;16877;48.810;9.282;2022-10-16T12:57:33;3.03;;;1.23;;
1366;SDS011;16877;48.810;9.282;2022-10-16T13:00:10;3.93;;;1.83;;
1366;SDS011;16877;48.810;9.282;2022-10-16T13:02:55;6.30;;;1.70;;
1366;SDS011;16877;48.810;9.282;2022-10-16T13:05:43;3.03;;;1.30;;
1366;SDS011;16877;48.810;9.282;2022-10-16T13:08:24;3.80;;;1.20;;
1366;SDS011;16877;48.810;9.282;2022-10-16T13:11:03;2.23;;;1.03;;
1366;SDS011;16877;48.810;9.282;2022-10-16T13:13:38;3.03;;;1.57;;
1366;SDS011;16877;48.810;9.282;2022-10-16T13:16:26;3.00;;;2.00;;
1366;SDS011;16877;48.810;9.282;2022-10-16T13:19:03;2.67;;;1.80;;
1366;SDS011;16877;48.810;9.282;2022-10-16T13:21:39;3.07;;;1.10;;
1366;SDS011;16877;48.810;9.282;2022-10-16T13:24:18;2.83;;;1.40;;
1366;SDS011;16877;48.810;9.282;2022-10-16T13:26:52;2.53;;;1.40;;
1366;SDS011;16877;48.810;9.282;2022-10-16T13:29:24;3.27;;;1.47;;
1366;SDS011;16877;48.810;9.282;2022-10-16T13:31:56;4.07;;;1.30;;
1366;SDS011;16877;48.810;9.282;2022-10-16T13:34:24;5.90;;;2.03;;
1366;SDS011;16877;48.810;9.282;2022-10-16T13:36:52;3.30;;;1.47;;
1366;SDS011;16877;48.810;9.282;2022-10-16T13:39:22;4.30;;;1.53;;
1366;SDS011;16877;48.810;9.282;2022-10-16T13:42:03;5.30;;;1.60;;
1366;SDS011;16877;48.810;9.282;2022-10-16T13:44:35;2.33;;;1.30;;
1366;SDS011;16877;48.810;9.282;2022-10-16T13:47:05;4.83;;;1.43;;
1366;SDS011;16877;48.810;9.282;2022-10-16T13:49:40;4.10;;;1.67;;
1366;SDS011;16877;48.810;9.282;2022-10-16T13:52:15;5.30;;;1.67;;
1366;SDS011;16877;48.810;9.282;2022-10-16T13:54:45;2.50;;;1.43;;
1366;SDS011;16877;48.810;9.282;2022-10-16T13:57:13;2.33;;;1.37;;
1366;SDS011;16877;48.810;9.282;2022-10-16T13:59:40;6.10;;;2.80;;
1366;SDS011;16877;48.810;9.282;2022-10-16T14:02:10;3.03;;;1.83;;
1366;SDS011;16877;48.810;9.282;2022-10-16T14:04:44;2.40;;;1.70;;
1366;SDS011;16877;48.810;9.282;2022-10-16T14:07:13;2.73;;;1.33;;
1366;SDS011;16877;48.810;9.282;2022-10-16T14:09:47;8.07;;;1.83;;
1366;SDS011;16877;48.810;9.282;2022-10-16T14:12:16;2.67;;;1.30;;
1366;SDS011;16877;48.810;9.282;2022-10-16T14:14:44;2.80;;;1.30;;
1366;SDS011;16877;48.810;9.282;2022-10-16T14:17:15;2.40;;;1.40;;
1366;SDS011;16877;48.810;9.282;2022-10-16T14:19:46;2.40;;;1.20;;
1366;SDS011;16877;48.810;9.282;2022-10-16T14:25:01;3.53;;;1.50;;
1366;SDS011;16877;48.810;9.282;2022-10-16T14:27:29;3.97;;;1.37;;
1366;SDS011;16877;48.810;9.282;2022-10-16T14:30:14;3.40;;;1.37;;
1366;SDS011;16877;48.810;9.282;2022-10-16T14:32:52;2.60;;;1.70;;
1366;SDS011;16877;48.810;9.282;2022-10-16T14:35:24;3.10;;;1.30;;
1366;SDS011;16877;48.810;9.282;2022-10-16T14:37:52;3.00;;;1.67;;
1366;SDS011;16877;48.810;9.282;2022-10-16T14:40:21;7.80;;;2.47;;
1366;SDS011;16877;48.810;9.282;2022-10-16T14:42:50;3.70;;;1.80;;
1366;SDS011;16877;48.810;9.282;2022-10-16T14:45:18;4.23;;;1.60;;
1366;SDS011;16877;48.810;9.282;2022-10-16T14:47:47;5.60;;;2.33;;
1366;SDS011;16877;48.810;9.282;2022-10-16T14:50:16;4.57;;;3.70;;
1366;SDS011;16877;48.810;9.282;2022-10-16T14:52:43;6.03;;;3.93;;
1366;SDS011;16877;48.810;9.282;2022-10-16T14:55:10;4.17;;;2.47;;
1366;SDS011;16877;48.810;9.282;2022-10-16T14:57:38;3.73;;;2.17;;
1366;SDS011;16877;48.810;9.282;2022-10-16T15:00:08;4.20;;;2.70;;
1366;SDS011;16877;48.810;9.282;2022-10-16T15:02:41;6.07;;;3.73;;
1366;SDS011;16877;48.810;9.282;2022-10-16T15:05:11;15.73;;;8.43;;
1366;SDS011;16877;48.810;9.282;2022-10-16T15:07:40;11.37;;;4.70;;
1366;SDS011;16877;48.810;9.282;2022-10-16T15:10:08;9.23;;;3.67;;
1366;SDS011;16877;48.810;9.282;2022-10-16T15:12:35;8.80;;;4.97;;
1366;SDS011;16877;48.810;9.282;2022-10-16T15:15:05;5.87;;;4.37;;
1366;SDS011;16877;48.810;9.282;2022-10-16T15:17:55;9.40;;;5.90;;
1366;SDS011;16877;48.810;9.282;2022-10-16T15:20:25;15.10;;;6.73;;
1366;SDS011;16877;48.810;9.282;2022-10-16T15:22:53;12.53;;;7.93;;
1366;SDS011;16877;48.810;9.282;2022-10-16T15:25:27;9.70;;;6.67;;
1366;SDS011;16877;48.810;9.282;2022-10-16T15:27:57;13.40;;;10.83;;
1366;SDS011;16877;48.810;9.282;2022-10-16T15:30:26;18.10;;;15.13;;